sensor_id;sensor_type;location;lat;lon;timestamp;P1;durP1;ratioP1;P2;durP2;ratioP2
5730;SDS011;2890;51.950;7.668;2022-11-15T00:00:45;13.87;;;9.97;;
5730;SDS011;2890;51.950;7.668;2022-11-15T00:03:13;11.50;;;7.60;;
5730;SDS011;2890;51.950;7.668;2022-11-15T00:05:40;10.30;;;8.23;;
5730;SDS011;2890;51.950;7.668;2022-11-15T00:08:08;12.05;;;8.30;;
5730;SDS011;2890;51.950;7.668;2022-11-15T00:10:35;12.90;;;8.90;;
5730;SDS011;2890;51.950;7.668;2022-11-15T00:13:05;13.83;;;11.13;;
5730;SDS011;2890;51.950;7.668;2022-11-15T00:15:34;10.47;;;8.33;;
5730;SDS011;2890;51.950;7.668;2022-11-15T00:18:01;15.07;;;11.60;;
5730;SDS011;2890;51.950;7.668;2022-11-15T00:20:28;11.27;;;8.40;;
5730;SDS011;2890;51.950;7.668;2022-11-15T00:22:56;11.30;;;7.67;;
5730;SDS011;2890;51.950;7.668;2022-11-15T00:25:23;9.90;;;8.70;;
5730;SDS011;2890;51.950;7.668;2022-11-15T00:27:50;11.73;;;10.07;;
5730;SDS011;2890;51.950;7.668;2022-11-15T00:30:22;10.30;;;7.43;;
5730;SDS011;2890;51.950;7.668;2022-11-15T00:32:50;11.03;;;8.83;;
5730;SDS011;2890;51.950;7.668;2022-11-15T00:35:17;9.97;;;7.77;;
5730;SDS011;2890;51.950;7.668;2022-11-15T00:37:45;9.77;;;7.30;;
5730;SDS011;2890;51.950;7.668;2022-11-15T00:40:12;12.67;;;8.00;;
5730;SDS011;2890;51.950;7.668;2022-11-15T00:42:40;10.60;;;8.67;;
5730;SDS011;2890;51.950;7.668;2022-11-15T00:45:07;11.60;;;9.30;;
5730;SDS011;2890;51.950;7.668;2022-11-15T00:47:36;11.17;;;6.90;;
5730;SDS011;2890;51.950;7.668;2022-11-15T00:50:04;8.63;;;7.50;;
5730;SDS011;2890;51.950;7.668;2022-11-15T00:52:31;8.93;;;7.17;;
5730;SDS011;2890;51.950;7.668;2022-11-15T00:54:58;10.17;;;7.20;;
5730;SDS011;2890;51.950;7.668;2022-11-15T00:57:25;9.37;;;7.47;;
5730;SDS011;2890;51.950;7.668;2022-11-15T00:59:52;10.60;;;7.53;;
5730;SDS011;2890;51.950;7.668;2022-11-15T01:02:20;9.13;;;6.67;;
5730;SDS011;2890;51.950;7.668;2022-11-15T01:04:48;11.30;;;6.83;;
5730;SDS011;2890;51.950;7.668;2022-11-15T01:07:15;9.47;;;7.53;;
5730;SDS011;2890;51.950;7.668;2022-11-15T01:09:42;11.17;;;7.50;;
5730;SDS011;2890;51.950;7.668;2022-11-15T01:12:10;10.77;;;7.77;;
5730;SDS011;2890;51.950;7.668;2022-11-15T01:14:37;10.60;;;7.43;;
5730;SDS011;2890;51.950;7.668;2022-11-15T01:17:05;7.83;;;6.70;;
5730;SDS011;2890;51.950;7.668;2022-11-15T01:19:32;10.43;;;8.20;;
5730;SDS011;2890;51.950;7.668;2022-11-15T01:22:00;7.93;;;6.83;;
5730;SDS011;2890;51.950;7.668;2022-11-15T01:24:27;9.07;;;7.20;;
5730;SDS011;2890;51.950;7.668;2022-11-15T01:26:55;8.93;;;7.00;;
5730;SDS011;2890;51.950;7.668;2022-11-15T01:29:22;11.45;;;7.80;;
5730;SDS011;2890;51.950;7.668;2022-11-15T01:31:49;8.07;;;6.13;;
5730;SDS011;2890;51.950;7.668;2022-11-15T01:34:16;12.43;;;9.70;;
5730;SDS011;2890;51.950;7.668;2022-11-15T01:36:43;8.87;;;7.33;;
5730;SDS011;2890;51.950;7.668;2022-11-15T01:39:12;15.53;;;8.90;;
5730;SDS011;2890;51.950;7.668;2022-11-15T01:41:40;9.00;;;6.75;;
5730;SDS011;2890;51.950;7.668;2022-11-15T01:46:53;9.77;;;6.87;;
5730;SDS011;2890;51.950;7.668;2022-11-15T01:49:21;9.00;;;6.93;;
5730;SDS011;2890;51.950;7.668;2022-11-15T01:51:48;9.93;;;7.13;;
5730;SDS011;2890;51.950;7.668;2022-11-15T01:54:19;11.87;;;9.67;;
5730;SDS011;2890;51.950;7.668;2022-11-15T01:56:48;10.37;;;7.07;;
5730;SDS011;2890;51.950;7.668;2022-11-15T01:59:17;10.70;;;8.70;;
5730;SDS011;2890;51.950;7.668;2022-11-15T02:01:45;7.87;;;6.30;;
5730;SDS011;2890;51.950;7.668;2022-11-15T02:04:13;14.47;;;9.47;;
5730;SDS011;2890;51.950;7.668;2022-11-15T02:06:42;8.50;;;6.97;;
5730;SDS011;2890;51.950;7.668;2022-11-15T02:09:10;7.85;;;6.80;;
5730;SDS011;2890;51.950;7.668;2022-11-15T02:11:39;10.00;;;7.13;;
5730;SDS011;2890;51.950;7.668;2022-11-15T02:14:06;8.23;;;6.17;;
5730;SDS011;2890;51.950;7.668;2022-11-15T02:16:35;8.67;;;6.47;;
5730;SDS011;2890;51.950;7.668;2022-11-15T02:19:08;7.13;;;6.23;;
5730;SDS011;2890;51.950;7.668;2022-11-15T02:21:41;9.63;;;6.40;;
5730;SDS011;2890;51.950;7.668;2022-11-15T02:24:26;8.85;;;6.28;;
5730;SDS011;2890;51.950;7.668;2022-11-15T02:29:52;9.77;;;8.73;;
5730;SDS011;2890;51.950;7.668;2022-11-15T02:32:27;8.30;;;6.87;;
5730;SDS011;2890;51.950;7.668;2022-11-15T02:34:59;9.73;;;6.80;;
5730;SDS011;2890;51.950;7.668;2022-11-15T02:37:30;8.23;;;6.60;;
5730;SDS011;2890;51.950;7.668;2022-11-15T02:39:59;8.00;;;5.87;;
5730;SDS011;2890;51.950;7.668;2022-11-15T02:42:28;9.60;;;6.93;;
5730;SDS011;2890;51.950;7.668;2022-11-15T02:45:17;8.83;;;6.60;;
5730;SDS011;2890;51.950;7.668;2022-11-15T02:47:47;8.17;;;6.13;;
5730;SDS011;2890;51.950;7.668;2022-11-15T02:50:16;9.97;;;6.17;;
5730;SDS011;2890;51.950;7.668;2022-11-15T02:52:45;9.33;;;6.90;;
5730;SDS011;2890;51.950;7.668;2022-11-15T02:55:25;8.70;;;7.20;;
5730;SDS011;2890;51.950;7.668;2022-11-15T02:57:54;9.00;;;6.60;;
5730;SDS011;2890;51.950;7.668;2022-11-15T03:00:24;8.43;;;6.63;;
5730;SDS011;2890;51.950;7.668;2022-11-15T03:02:58;8.83;;;6.67;;
5730;SDS011;2890;51.950;7.668;2022-11-15T03:05:34;10.40;;;9.32;;
5730;SDS011;2890;51.950;7.668;2022-11-15T03:08:03;9.10;;;6.93;;
5730;SDS011;2890;51.950;7.668;2022-11-15T03:10:36;10.23;;;9.13;;
5730;SDS011;2890;51.950;7.668;2022-11-15T03:13:07;7.75;;;6.28;;
5730;SDS011;2890;51.950;7.668;2022-11-15T03:15:37;11.40;;;9.00;;
5730;SDS011;2890;51.950;7.668;2022-11-15T03:18:06;7.07;;;6.37;;
5730;SDS011;2890;51.950;7.668;2022-11-15T03:20:37;7.47;;;6.37;;
5730;SDS011;2890;51.950;7.668;2022-11-15T03:23:05;10.20;;;7.38;;
5730;SDS011;2890;51.950;7.668;2022-11-15T03:25:33;10.52;;;9.35;;
5730;SDS011;2890;51.950;7.668;2022-11-15T03:28:02;8.70;;;6.47;;
5730;SDS011;2890;51.950;7.668;2022-11-15T03:30:31;9.10;;;7.10;;
5730;SDS011;2890;51.950;7.668;2022-11-15T03:32:59;7.50;;;6.10;;
5730;SDS011;2890;51.950;7.668;2022-11-15T03:35:30;10.23;;;9.20;;
5730;SDS011;2890;51.950;7.668;2022-11-15T03:38:03;8.82;;;6.70;;
5730;SDS011;2890;51.950;7.668;2022-11-15T03:40:33;11.38;;;8.70;;
5730;SDS011;2890;51.950;7.668;2022-11-15T03:43:04;9.80;;;7.10;;
5730;SDS011;2890;51.950;7.668;2022-11-15T03:45:35;9.10;;;6.63;;
5730;SDS011;2890;51.950;7.668;2022-11-15T03:48:05;8.00;;;6.27;;
5730;SDS011;2890;51.950;7.668;2022-11-15T03:50:35;8.67;;;6.47;;
5730;SDS011;2890;51.950;7.668;2022-11-15T03:53:03;10.48;;;6.93;;
5730;SDS011;2890;51.950;7.668;2022-11-15T03:55:31;10.30;;;9.27;;
5730;SDS011;2890;51.950;7.668;2022-11-15T03:57:59;11.97;;;6.90;;
5730;SDS011;2890;51.950;7.668;2022-11-15T04:00:26;9.47;;;6.93;;
5730;SDS011;2890;51.950;7.668;2022-11-15T04:02:54;8.40;;;6.43;;
5730;SDS011;2890;51.950;7.668;2022-11-15T04:05:21;11.30;;;7.40;;
5730;SDS011;2890;51.950;7.668;2022-11-15T04:07:49;10.77;;;6.30;;
5730;SDS011;2890;51.950;7.668;2022-11-15T04:10:16;8.50;;;6.50;;
5730;SDS011;2890;51.950;7.668;2022-11-15T04:12:44;9.52;;;6.70;;
5730;SDS011;2890;51.950;7.668;2022-11-15T04:15:13;7.20;;;6.33;;
5730;SDS011;2890;51.950;7.668;2022-11-15T04:17:42;7.77;;;6.47;;
5730;SDS011;2890;51.950;7.668;2022-11-15T04:20:10;8.02;;;6.20;;
5730;SDS011;2890;51.950;7.668;2022-11-15T04:22:57;8.43;;;6.50;;
5730;SDS011;2890;51.950;7.668;2022-11-15T04:25:42;9.85;;;6.68;;
5730;SDS011;2890;51.950;7.668;2022-11-15T04:28:10;9.38;;;6.53;;
5730;SDS011;2890;51.950;7.668;2022-11-15T04:30:38;10.20;;;8.82;;
5730;SDS011;2890;51.950;7.668;2022-11-15T04:33:05;6.23;;;5.50;;
5730;SDS011;2890;51.950;7.668;2022-11-15T04:35:32;8.00;;;6.38;;
5730;SDS011;2890;51.950;7.668;2022-11-15T04:38:02;7.87;;;5.73;;
5730;SDS011;2890;51.950;7.668;2022-11-15T04:40:28;8.20;;;7.38;;
5730;SDS011;2890;51.950;7.668;2022-11-15T04:42:56;7.45;;;6.18;;
5730;SDS011;2890;51.950;7.668;2022-11-15T04:45:23;7.50;;;5.88;;
5730;SDS011;2890;51.950;7.668;2022-11-15T04:47:51;11.00;;;6.47;;
5730;SDS011;2890;51.950;7.668;2022-11-15T04:50:18;10.70;;;7.10;;
5730;SDS011;2890;51.950;7.668;2022-11-15T04:52:49;12.60;;;6.90;;
5730;SDS011;2890;51.950;7.668;2022-11-15T04:55:18;9.38;;;7.03;;
5730;SDS011;2890;51.950;7.668;2022-11-15T04:57:45;11.57;;;6.53;;
5730;SDS011;2890;51.950;7.668;2022-11-15T05:00:13;8.15;;;5.95;;
5730;SDS011;2890;51.950;7.668;2022-11-15T05:02:42;7.40;;;6.00;;
5730;SDS011;2890;51.950;7.668;2022-11-15T05:05:27;10.63;;;6.20;;
5730;SDS011;2890;51.950;7.668;2022-11-15T05:07:54;9.05;;;6.22;;
5730;SDS011;2890;51.950;7.668;2022-11-15T05:10:22;7.15;;;6.10;;
5730;SDS011;2890;51.950;7.668;2022-11-15T05:12:50;8.77;;;6.40;;
5730;SDS011;2890;51.950;7.668;2022-11-15T05:15:17;8.97;;;6.87;;
5730;SDS011;2890;51.950;7.668;2022-11-15T05:17:44;8.40;;;6.60;;
5730;SDS011;2890;51.950;7.668;2022-11-15T05:20:11;9.15;;;6.97;;
5730;SDS011;2890;51.950;7.668;2022-11-15T05:22:39;7.10;;;6.03;;
5730;SDS011;2890;51.950;7.668;2022-11-15T05:25:06;8.00;;;6.20;;
5730;SDS011;2890;51.950;7.668;2022-11-15T05:27:34;8.75;;;6.03;;
5730;SDS011;2890;51.950;7.668;2022-11-15T05:30:02;8.48;;;6.40;;
5730;SDS011;2890;51.950;7.668;2022-11-15T05:32:29;7.90;;;5.97;;
5730;SDS011;2890;51.950;7.668;2022-11-15T05:34:56;10.18;;;6.55;;
5730;SDS011;2890;51.950;7.668;2022-11-15T05:37:23;9.88;;;6.40;;
5730;SDS011;2890;51.950;7.668;2022-11-15T05:39:50;9.65;;;6.72;;
5730;SDS011;2890;51.950;7.668;2022-11-15T05:42:17;9.82;;;6.88;;
5730;SDS011;2890;51.950;7.668;2022-11-15T05:44:47;11.55;;;5.80;;
5730;SDS011;2890;51.950;7.668;2022-11-15T05:47:15;8.32;;;6.43;;
5730;SDS011;2890;51.950;7.668;2022-11-15T05:49:44;7.28;;;6.00;;
5730;SDS011;2890;51.950;7.668;2022-11-15T05:52:11;20.00;;;8.93;;
5730;SDS011;2890;51.950;7.668;2022-11-15T05:54:41;13.13;;;8.80;;
5730;SDS011;2890;51.950;7.668;2022-11-15T05:57:09;9.40;;;6.57;;
5730;SDS011;2890;51.950;7.668;2022-11-15T05:59:36;8.30;;;6.13;;
5730;SDS011;2890;51.950;7.668;2022-11-15T06:02:06;7.20;;;6.40;;
5730;SDS011;2890;51.950;7.668;2022-11-15T06:04:33;14.67;;;9.60;;
5730;SDS011;2890;51.950;7.668;2022-11-15T06:07:02;9.25;;;7.05;;
5730;SDS011;2890;51.950;7.668;2022-11-15T06:09:29;9.88;;;7.30;;
5730;SDS011;2890;51.950;7.668;2022-11-15T06:11:56;8.02;;;7.22;;
5730;SDS011;2890;51.950;7.668;2022-11-15T06:14:23;8.83;;;6.63;;
5730;SDS011;2890;51.950;7.668;2022-11-15T06:16:50;9.25;;;6.85;;
5730;SDS011;2890;51.950;7.668;2022-11-15T06:19:19;9.98;;;6.80;;
5730;SDS011;2890;51.950;7.668;2022-11-15T06:21:46;9.70;;;7.47;;
5730;SDS011;2890;51.950;7.668;2022-11-15T06:24:13;10.98;;;7.28;;
5730;SDS011;2890;51.950;7.668;2022-11-15T06:26:40;9.05;;;7.07;;
5730;SDS011;2890;51.950;7.668;2022-11-15T06:29:07;10.35;;;6.82;;
5730;SDS011;2890;51.950;7.668;2022-11-15T06:31:34;7.53;;;6.47;;
5730;SDS011;2890;51.950;7.668;2022-11-15T06:34:02;13.40;;;9.37;;
5730;SDS011;2890;51.950;7.668;2022-11-15T06:36:30;9.40;;;6.57;;
5730;SDS011;2890;51.950;7.668;2022-11-15T06:38:57;10.53;;;8.40;;
5730;SDS011;2890;51.950;7.668;2022-11-15T06:41:24;7.97;;;6.30;;
5730;SDS011;2890;51.950;7.668;2022-11-15T06:43:51;10.45;;;7.60;;
5730;SDS011;2890;51.950;7.668;2022-11-15T06:46:19;8.73;;;6.47;;
5730;SDS011;2890;51.950;7.668;2022-11-15T06:48:46;11.73;;;9.23;;
5730;SDS011;2890;51.950;7.668;2022-11-15T06:51:14;10.05;;;6.43;;
5730;SDS011;2890;51.950;7.668;2022-11-15T06:53:42;7.63;;;6.80;;
5730;SDS011;2890;51.950;7.668;2022-11-15T06:56:09;8.40;;;6.97;;
5730;SDS011;2890;51.950;7.668;2022-11-15T06:58:36;7.93;;;6.50;;
5730;SDS011;2890;51.950;7.668;2022-11-15T07:01:04;13.45;;;7.32;;
5730;SDS011;2890;51.950;7.668;2022-11-15T07:03:33;8.55;;;6.93;;
5730;SDS011;2890;51.950;7.668;2022-11-15T07:06:01;9.17;;;6.33;;
5730;SDS011;2890;51.950;7.668;2022-11-15T07:08:28;7.47;;;6.43;;
5730;SDS011;2890;51.950;7.668;2022-11-15T07:10:58;8.97;;;6.77;;
5730;SDS011;2890;51.950;7.668;2022-11-15T07:13:27;9.82;;;7.30;;
5730;SDS011;2890;51.950;7.668;2022-11-15T07:15:54;8.10;;;6.15;;
5730;SDS011;2890;51.950;7.668;2022-11-15T07:18:21;6.90;;;6.20;;
5730;SDS011;2890;51.950;7.668;2022-11-15T07:20:48;8.75;;;6.70;;
5730;SDS011;2890;51.950;7.668;2022-11-15T07:23:16;9.10;;;6.28;;
5730;SDS011;2890;51.950;7.668;2022-11-15T07:25:43;11.70;;;6.25;;
5730;SDS011;2890;51.950;7.668;2022-11-15T07:28:11;6.97;;;6.07;;
5730;SDS011;2890;51.950;7.668;2022-11-15T07:30:38;7.77;;;6.13;;
5730;SDS011;2890;51.950;7.668;2022-11-15T07:33:05;7.82;;;6.30;;
5730;SDS011;2890;51.950;7.668;2022-11-15T07:35:32;11.15;;;8.95;;
5730;SDS011;2890;51.950;7.668;2022-11-15T07:38:00;6.47;;;5.73;;
5730;SDS011;2890;51.950;7.668;2022-11-15T07:40:28;7.63;;;5.70;;
5730;SDS011;2890;51.950;7.668;2022-11-15T07:42:58;6.00;;;4.82;;
5730;SDS011;2890;51.950;7.668;2022-11-15T07:45:27;5.63;;;5.05;;
5730;SDS011;2890;51.950;7.668;2022-11-15T07:47:54;7.30;;;4.90;;
5730;SDS011;2890;51.950;7.668;2022-11-15T07:50:22;5.90;;;4.85;;
5730;SDS011;2890;51.950;7.668;2022-11-15T07:52:53;5.40;;;4.43;;
5730;SDS011;2890;51.950;7.668;2022-11-15T07:55:20;5.55;;;4.53;;
5730;SDS011;2890;51.950;7.668;2022-11-15T07:57:47;5.25;;;4.75;;
5730;SDS011;2890;51.950;7.668;2022-11-15T08:00:15;5.25;;;4.72;;
5730;SDS011;2890;51.950;7.668;2022-11-15T08:02:43;5.60;;;4.47;;
5730;SDS011;2890;51.950;7.668;2022-11-15T08:05:10;5.53;;;4.20;;
5730;SDS011;2890;51.950;7.668;2022-11-15T08:07:38;7.13;;;4.75;;
5730;SDS011;2890;51.950;7.668;2022-11-15T08:10:05;5.10;;;4.40;;
5730;SDS011;2890;51.950;7.668;2022-11-15T08:12:32;5.43;;;4.28;;
5730;SDS011;2890;51.950;7.668;2022-11-15T08:15:00;5.10;;;4.50;;
5730;SDS011;2890;51.950;7.668;2022-11-15T08:17:27;4.28;;;3.88;;
5730;SDS011;2890;51.950;7.668;2022-11-15T08:19:59;5.32;;;3.80;;
5730;SDS011;2890;51.950;7.668;2022-11-15T08:22:26;4.20;;;3.67;;
5730;SDS011;2890;51.950;7.668;2022-11-15T08:24:53;3.88;;;3.25;;
5730;SDS011;2890;51.950;7.668;2022-11-15T08:27:20;4.15;;;3.42;;
5730;SDS011;2890;51.950;7.668;2022-11-15T08:29:48;6.10;;;5.47;;
5730;SDS011;2890;51.950;7.668;2022-11-15T08:32:15;4.72;;;3.30;;
5730;SDS011;2890;51.950;7.668;2022-11-15T08:34:42;3.20;;;2.85;;
5730;SDS011;2890;51.950;7.668;2022-11-15T08:37:11;3.53;;;3.07;;
5730;SDS011;2890;51.950;7.668;2022-11-15T08:39:38;3.70;;;2.80;;
5730;SDS011;2890;51.950;7.668;2022-11-15T08:42:05;3.20;;;2.90;;
5730;SDS011;2890;51.950;7.668;2022-11-15T08:44:32;4.30;;;2.80;;
5730;SDS011;2890;51.950;7.668;2022-11-15T08:46:59;3.60;;;3.30;;
5730;SDS011;2890;51.950;7.668;2022-11-15T08:49:26;5.00;;;2.70;;
5730;SDS011;2890;51.950;7.668;2022-11-15T08:51:54;2.97;;;2.72;;
5730;SDS011;2890;51.950;7.668;2022-11-15T08:54:22;2.53;;;2.33;;
5730;SDS011;2890;51.950;7.668;2022-11-15T08:56:49;3.00;;;2.15;;
5730;SDS011;2890;51.950;7.668;2022-11-15T08:59:16;2.53;;;2.25;;
5730;SDS011;2890;51.950;7.668;2022-11-15T09:01:43;5.78;;;2.40;;
5730;SDS011;2890;51.950;7.668;2022-11-15T09:04:10;2.35;;;1.95;;
5730;SDS011;2890;51.950;7.668;2022-11-15T09:06:37;2.47;;;2.28;;
5730;SDS011;2890;51.950;7.668;2022-11-15T09:09:04;4.68;;;4.32;;
5730;SDS011;2890;51.950;7.668;2022-11-15T09:11:33;2.08;;;1.92;;
5730;SDS011;2890;51.950;7.668;2022-11-15T09:14:00;3.38;;;2.53;;
5730;SDS011;2890;51.950;7.668;2022-11-15T09:16:27;2.03;;;1.83;;
5730;SDS011;2890;51.950;7.668;2022-11-15T09:18:54;4.55;;;4.25;;
5730;SDS011;2890;51.950;7.668;2022-11-15T09:21:21;2.10;;;1.90;;
5730;SDS011;2890;51.950;7.668;2022-11-15T09:23:49;2.13;;;1.80;;
5730;SDS011;2890;51.950;7.668;2022-11-15T09:26:17;2.15;;;1.98;;
5730;SDS011;2890;51.950;7.668;2022-11-15T09:28:46;2.88;;;1.80;;
5730;SDS011;2890;51.950;7.668;2022-11-15T09:31:13;2.30;;;2.03;;
5730;SDS011;2890;51.950;7.668;2022-11-15T09:33:42;2.28;;;1.98;;
5730;SDS011;2890;51.950;7.668;2022-11-15T09:36:10;3.97;;;2.00;;
5730;SDS011;2890;51.950;7.668;2022-11-15T09:38:37;2.13;;;1.92;;
5730;SDS011;2890;51.950;7.668;2022-11-15T09:41:25;2.35;;;1.98;;
5730;SDS011;2890;51.950;7.668;2022-11-15T09:43:57;5.53;;;4.43;;
5730;SDS011;2890;51.950;7.668;2022-11-15T09:46:30;1.95;;;1.77;;
5730;SDS011;2890;51.950;7.668;2022-11-15T09:48:59;2.22;;;2.00;;
5730;SDS011;2890;51.950;7.668;2022-11-15T09:51:28;4.43;;;2.30;;
5730;SDS011;2890;51.950;7.668;2022-11-15T09:53:57;4.00;;;3.70;;
5730;SDS011;2890;51.950;7.668;2022-11-15T09:56:26;1.80;;;1.70;;
5730;SDS011;2890;51.950;7.668;2022-11-15T09:58:56;4.68;;;4.38;;
5730;SDS011;2890;51.950;7.668;2022-11-15T10:01:31;1.98;;;1.88;;
5730;SDS011;2890;51.950;7.668;2022-11-15T10:04:00;4.45;;;4.05;;
5730;SDS011;2890;51.950;7.668;2022-11-15T10:06:28;4.93;;;4.53;;
5730;SDS011;2890;51.950;7.668;2022-11-15T10:08:56;3.55;;;1.85;;
5730;SDS011;2890;51.950;7.668;2022-11-15T10:11:25;3.28;;;1.67;;
5730;SDS011;2890;51.950;7.668;2022-11-15T10:13:55;2.17;;;2.00;;
5730;SDS011;2890;51.950;7.668;2022-11-15T10:16:28;4.10;;;3.80;;
5730;SDS011;2890;51.950;7.668;2022-11-15T10:19:00;5.15;;;4.53;;
5730;SDS011;2890;51.950;7.668;2022-11-15T10:21:35;2.38;;;1.98;;
5730;SDS011;2890;51.950;7.668;2022-11-15T10:24:08;3.33;;;3.05;;
5730;SDS011;2890;51.950;7.668;2022-11-15T10:26:37;1.70;;;1.60;;
5730;SDS011;2890;51.950;7.668;2022-11-15T10:29:05;1.85;;;1.73;;
5730;SDS011;2890;51.950;7.668;2022-11-15T10:31:32;2.95;;;1.67;;
5730;SDS011;2890;51.950;7.668;2022-11-15T10:34:08;4.63;;;4.22;;
5730;SDS011;2890;51.950;7.668;2022-11-15T10:36:37;2.45;;;1.92;;
5730;SDS011;2890;51.950;7.668;2022-11-15T10:39:04;3.55;;;3.33;;
5730;SDS011;2890;51.950;7.668;2022-11-15T10:41:32;4.38;;;4.07;;
5730;SDS011;2890;51.950;7.668;2022-11-15T10:44:02;4.75;;;4.40;;
5730;SDS011;2890;51.950;7.668;2022-11-15T10:46:30;1.77;;;1.67;;
5730;SDS011;2890;51.950;7.668;2022-11-15T10:49:06;1.70;;;1.60;;
5730;SDS011;2890;51.950;7.668;2022-11-15T10:51:40;1.65;;;1.55;;
5730;SDS011;2890;51.950;7.668;2022-11-15T10:54:08;4.63;;;4.20;;
5730;SDS011;2890;51.950;7.668;2022-11-15T10:56:38;1.83;;;1.60;;
5730;SDS011;2890;51.950;7.668;2022-11-15T10:59:14;1.90;;;1.80;;
5730;SDS011;2890;51.950;7.668;2022-11-15T11:01:45;2.20;;;1.40;;
5730;SDS011;2890;51.950;7.668;2022-11-15T11:04:14;2.60;;;1.67;;
5730;SDS011;2890;51.950;7.668;2022-11-15T11:06:48;3.40;;;1.48;;
5730;SDS011;2890;51.950;7.668;2022-11-15T11:09:22;1.30;;;1.20;;
5730;SDS011;2890;51.950;7.668;2022-11-15T11:11:50;1.92;;;1.35;;
5730;SDS011;2890;51.950;7.668;2022-11-15T11:14:19;1.98;;;1.40;;
5730;SDS011;2890;51.950;7.668;2022-11-15T11:16:48;1.75;;;1.48;;
5730;SDS011;2890;51.950;7.668;2022-11-15T11:19:27;1.75;;;1.50;;
5730;SDS011;2890;51.950;7.668;2022-11-15T11:21:58;2.75;;;1.67;;
5730;SDS011;2890;51.950;7.668;2022-11-15T11:24:32;1.42;;;1.33;;
5730;SDS011;2890;51.950;7.668;2022-11-15T11:27:05;2.00;;;1.77;;
5730;SDS011;2890;51.950;7.668;2022-11-15T11:29:39;1.42;;;1.30;;
5730;SDS011;2890;51.950;7.668;2022-11-15T11:32:14;3.08;;;1.63;;
5730;SDS011;2890;51.950;7.668;2022-11-15T11:34:49;1.63;;;1.52;;
5730;SDS011;2890;51.950;7.668;2022-11-15T11:37:20;1.13;;;1.13;;
5730;SDS011;2890;51.950;7.668;2022-11-15T11:39:54;3.08;;;2.35;;
5730;SDS011;2890;51.950;7.668;2022-11-15T11:42:26;1.70;;;1.20;;
5730;SDS011;2890;51.950;7.668;2022-11-15T11:44:58;3.05;;;1.80;;
5730;SDS011;2890;51.950;7.668;2022-11-15T11:47:31;1.50;;;1.33;;
5730;SDS011;2890;51.950;7.668;2022-11-15T11:50:02;4.55;;;3.90;;
5730;SDS011;2890;51.950;7.668;2022-11-15T11:52:38;3.00;;;1.35;;
5730;SDS011;2890;51.950;7.668;2022-11-15T11:55:12;1.83;;;1.55;;
5730;SDS011;2890;51.950;7.668;2022-11-15T11:57:44;2.28;;;1.60;;
5730;SDS011;2890;51.950;7.668;2022-11-15T12:00:14;2.67;;;1.30;;
5730;SDS011;2890;51.950;7.668;2022-11-15T12:02:43;1.67;;;1.25;;
5730;SDS011;2890;51.950;7.668;2022-11-15T12:05:13;2.42;;;1.45;;
5730;SDS011;2890;51.950;7.668;2022-11-15T12:07:43;1.98;;;1.77;;
5730;SDS011;2890;51.950;7.668;2022-11-15T12:10:14;2.15;;;1.45;;
5730;SDS011;2890;51.950;7.668;2022-11-15T12:12:44;1.50;;;1.40;;
5730;SDS011;2890;51.950;7.668;2022-11-15T12:15:15;3.95;;;1.70;;
5730;SDS011;2890;51.950;7.668;2022-11-15T12:17:43;1.90;;;1.52;;
5730;SDS011;2890;51.950;7.668;2022-11-15T12:20:15;2.53;;;1.90;;
5730;SDS011;2890;51.950;7.668;2022-11-15T12:22:44;1.60;;;1.50;;
5730;SDS011;2890;51.950;7.668;2022-11-15T12:25:15;2.75;;;1.73;;
5730;SDS011;2890;51.950;7.668;2022-11-15T12:27:44;2.65;;;2.08;;
5730;SDS011;2890;51.950;7.668;2022-11-15T12:30:13;4.07;;;3.75;;
5730;SDS011;2890;51.950;7.668;2022-11-15T12:32:48;1.35;;;1.25;;
5730;SDS011;2890;51.950;7.668;2022-11-15T12:35:23;1.65;;;1.55;;
5730;SDS011;2890;51.950;7.668;2022-11-15T12:37:51;2.22;;;2.03;;
5730;SDS011;2890;51.950;7.668;2022-11-15T12:40:21;2.58;;;1.73;;
5730;SDS011;2890;51.950;7.668;2022-11-15T12:45:40;1.88;;;1.65;;
5730;SDS011;2890;51.950;7.668;2022-11-15T12:50:55;2.53;;;1.80;;
5730;SDS011;2890;51.950;7.668;2022-11-15T12:53:26;3.40;;;2.05;;
5730;SDS011;2890;51.950;7.668;2022-11-15T12:56:09;8.20;;;3.25;;
5730;SDS011;2890;51.950;7.668;2022-11-15T12:58:45;2.40;;;2.00;;
5730;SDS011;2890;51.950;7.668;2022-11-15T13:04:07;2.10;;;1.90;;
5730;SDS011;2890;51.950;7.668;2022-11-15T13:06:39;4.63;;;2.17;;
5730;SDS011;2890;51.950;7.668;2022-11-15T13:11:49;3.50;;;2.00;;
5730;SDS011;2890;51.950;7.668;2022-11-15T13:14:34;4.43;;;4.13;;
5730;SDS011;2890;51.950;7.668;2022-11-15T13:17:10;1.70;;;1.60;;
5730;SDS011;2890;51.950;7.668;2022-11-15T13:19:39;1.92;;;1.50;;
5730;SDS011;2890;51.950;7.668;2022-11-15T13:22:09;1.98;;;1.60;;
5730;SDS011;2890;51.950;7.668;2022-11-15T13:24:54;1.77;;;1.67;;
5730;SDS011;2890;51.950;7.668;2022-11-15T13:27:22;3.22;;;2.00;;
5730;SDS011;2890;51.950;7.668;2022-11-15T13:29:49;1.98;;;1.77;;
5730;SDS011;2890;51.950;7.668;2022-11-15T13:32:16;2.40;;;2.20;;
5730;SDS011;2890;51.950;7.668;2022-11-15T13:34:43;1.83;;;1.73;;
5730;SDS011;2890;51.950;7.668;2022-11-15T13:37:13;1.67;;;1.58;;
5730;SDS011;2890;51.950;7.668;2022-11-15T13:39:54;1.70;;;1.60;;
5730;SDS011;2890;51.950;7.668;2022-11-15T13:42:22;2.20;;;2.05;;
5730;SDS011;2890;51.950;7.668;2022-11-15T13:44:55;1.65;;;1.55;;
5730;SDS011;2890;51.950;7.668;2022-11-15T13:47:25;4.32;;;4.03;;
5730;SDS011;2890;51.950;7.668;2022-11-15T13:49:52;2.15;;;2.00;;
5730;SDS011;2890;51.950;7.668;2022-11-15T13:52:21;1.98;;;1.77;;
5730;SDS011;2890;51.950;7.668;2022-11-15T13:54:50;1.75;;;1.63;;
5730;SDS011;2890;51.950;7.668;2022-11-15T13:57:20;3.30;;;2.90;;
5730;SDS011;2890;51.950;7.668;2022-11-15T13:59:48;2.28;;;2.10;;
5730;SDS011;2890;51.950;7.668;2022-11-15T14:02:17;2.72;;;1.98;;
5730;SDS011;2890;51.950;7.668;2022-11-15T14:04:46;2.35;;;2.25;;
5730;SDS011;2890;51.950;7.668;2022-11-15T14:07:15;2.47;;;2.28;;
5730;SDS011;2890;51.950;7.668;2022-11-15T14:09:44;1.58;;;1.48;;
5730;SDS011;2890;51.950;7.668;2022-11-15T14:12:25;2.22;;;2.03;;
5730;SDS011;2890;51.950;7.668;2022-11-15T14:14:54;1.58;;;1.48;;
5730;SDS011;2890;51.950;7.668;2022-11-15T14:17:32;2.08;;;1.88;;
5730;SDS011;2890;51.950;7.668;2022-11-15T14:19:59;2.75;;;2.05;;
5730;SDS011;2890;51.950;7.668;2022-11-15T14:22:26;5.25;;;4.50;;
5730;SDS011;2890;51.950;7.668;2022-11-15T14:25:06;2.67;;;1.92;;
5730;SDS011;2890;51.950;7.668;2022-11-15T14:27:34;4.70;;;4.30;;
5730;SDS011;2890;51.950;7.668;2022-11-15T14:30:01;2.58;;;1.38;;
5730;SDS011;2890;51.950;7.668;2022-11-15T14:32:29;2.25;;;1.90;;
5730;SDS011;2890;51.950;7.668;2022-11-15T14:34:57;3.17;;;2.47;;
5730;SDS011;2890;51.950;7.668;2022-11-15T14:37:25;1.58;;;1.48;;
5730;SDS011;2890;51.950;7.668;2022-11-15T14:39:53;2.90;;;1.90;;
5730;SDS011;2890;51.950;7.668;2022-11-15T14:42:22;3.08;;;2.83;;
5730;SDS011;2890;51.950;7.668;2022-11-15T14:44:50;2.42;;;2.22;;
5730;SDS011;2890;51.950;7.668;2022-11-15T14:47:17;1.92;;;1.52;;
5730;SDS011;2890;51.950;7.668;2022-11-15T14:49:44;2.30;;;2.15;;
5730;SDS011;2890;51.950;7.668;2022-11-15T14:52:19;2.10;;;1.90;;
5730;SDS011;2890;51.950;7.668;2022-11-15T14:54:48;1.73;;;1.63;;
5730;SDS011;2890;51.950;7.668;2022-11-15T14:57:15;2.20;;;1.75;;
5730;SDS011;2890;51.950;7.668;2022-11-15T14:59:44;2.00;;;1.58;;
5730;SDS011;2890;51.950;7.668;2022-11-15T15:02:13;2.45;;;1.67;;
5730;SDS011;2890;51.950;7.668;2022-11-15T15:04:42;2.22;;;1.42;;
5730;SDS011;2890;51.950;7.668;2022-11-15T15:07:09;2.00;;;1.73;;
5730;SDS011;2890;51.950;7.668;2022-11-15T15:09:37;2.42;;;2.10;;
5730;SDS011;2890;51.950;7.668;2022-11-15T15:12:04;2.10;;;1.90;;
5730;SDS011;2890;51.950;7.668;2022-11-15T15:14:32;2.17;;;1.98;;
5730;SDS011;2890;51.950;7.668;2022-11-15T15:17:01;1.80;;;1.70;;
5730;SDS011;2890;51.950;7.668;2022-11-15T15:19:29;2.08;;;1.92;;
5730;SDS011;2890;51.950;7.668;2022-11-15T15:21:56;2.10;;;1.95;;
5730;SDS011;2890;51.950;7.668;2022-11-15T15:24:23;4.13;;;3.72;;
5730;SDS011;2890;51.950;7.668;2022-11-15T15:26:50;2.15;;;1.80;;
5730;SDS011;2890;51.950;7.668;2022-11-15T15:29:17;3.85;;;3.08;;
5730;SDS011;2890;51.950;7.668;2022-11-15T15:31:44;2.40;;;2.13;;
5730;SDS011;2890;51.950;7.668;2022-11-15T15:34:12;4.78;;;2.17;;
5730;SDS011;2890;51.950;7.668;2022-11-15T15:36:39;3.33;;;2.22;;
5730;SDS011;2890;51.950;7.668;2022-11-15T15:39:08;2.35;;;2.10;;
5730;SDS011;2890;51.950;7.668;2022-11-15T15:41:35;4.05;;;1.85;;